Terminal Aerodrome Forecast
Issued by NWS Cleveland, OH

Home | Current Version | Previous Version | Graphics & Text | Print | Product List | Glossary On
Versions: 1 2 3 4 5 6 7 8 9 10 11 12 13 14 15 16 17 18 19 20 21 22 23 24 25 26 27 28 29 30 31
000
FTUS41 KCLE 010941 AAB
TAFCLE
TAF AMD
KCLE 010941Z 0110/0212 24006KT P6SM SCT012 BKN035
      TEMPO 0110/0114 5SM BR BKN012
     FM011400 28008KT P6SM SCT025 BKN045
     FM012000 30010KT P6SM SCT045
     FM020200 36005KT P6SM SCT250=

USA.gov is the U.S. government's official web portal to all federal, state and local government web resources and services.